ROMMA est une association bénévole à but non lucratif. Votre soutien est indispensable : ADHERER à ROMMA ou FAIRE un DON

Crest - (26, Drôme)

Vallée de la Drôme (315 m)   Longitude: 5°2' E   Latitude: 44°44' N Station partenaire n°62
 

Détail journalier du     <<     >>

Température Precipitation Humidité Pression Vent Dir Rafale Dir. rafale Ensol.
Heure (°C) (mm) (%) (hPa) (km/h) (km/h) (min)
01:00 7.70819927ENE24ENE0
02:00 7.20849923NNO10SE0
03:00 7.70819934ENE11E0
04:00 7.40829934SE18E0
05:00 7.30829923ENE11ENE0
06:00 7.50829933SE11SSE0
07:00 8.40759952SE10E0
08:00 8.40769964ESE19ESE0
09:00 7.20869973SE8SE0
10:00 8.20809992SSE8SSE0
11:00 10.106610005ENE21ESE0
12:00 10.506310017NE19ENE0
13:00 11.40.35410016NE19SSO4
14:00 11.9047100111ENE32NE46
15:00 11.905210009ENE26ENE17
16:00 11.105110016NE16ENE34
17:00 9.805910022NNE8NNE19
18:00 9.206710021---5S0
19:00 8.30.87310043SSE11SE0
20:00 7.10.58410043SE10SE0
21:00 7.408210054SE15SE0
22:00 6.408810064SE11SE0
23:00 6.407110073SE13NE0
minuit 6.607510082NNE8SSE0

Graphique du 22-12-2019

 

Serveur OMMA